createdAt,value
2022-10-31T00:08:03.295Z,11.91
2022-10-31T00:19:12.889Z,11.83
2022-10-31T00:24:44.603Z,11.78
2022-10-31T00:30:16.463Z,11.75
2022-10-31T00:35:48.212Z,11.71
2022-10-31T00:41:20.057Z,11.68
2022-10-31T00:46:51.863Z,11.60
2022-10-31T00:52:23.778Z,11.52
2022-10-31T00:57:55.609Z,11.45
2022-10-31T01:03:27.192Z,11.39
2022-10-31T01:08:58.833Z,11.34
2022-10-31T01:14:30.222Z,11.28
2022-10-31T01:20:01.689Z,11.22
2022-10-31T01:25:33.629Z,11.17
2022-10-31T01:36:34.735Z,11.07
2022-10-31T01:42:06.620Z,11.02
2022-10-31T01:53:12.720Z,10.93
2022-10-31T01:58:44.418Z,10.88
2022-10-31T02:04:17.867Z,10.84
2022-10-31T02:09:49.953Z,10.80
2022-10-31T02:15:21.511Z,10.75
2022-10-31T02:20:52.810Z,10.72
2022-10-31T02:26:24.230Z,10.69
2022-10-31T02:43:00.148Z,10.66
2022-10-31T02:54:03.531Z,10.64
2022-10-31T02:59:35.263Z,10.63
2022-10-31T03:05:06.785Z,10.62
2022-10-31T03:10:38.740Z,10.59
2022-10-31T03:16:10.541Z,10.56
2022-10-31T03:21:42.432Z,10.53
2022-10-31T03:27:13.989Z,10.51
2022-10-31T03:35:09.412Z,10.04
2022-10-31T03:46:12.910Z,10.28
2022-10-31T03:51:44.809Z,10.30
2022-10-31T03:57:16.801Z,10.29
2022-10-31T04:08:20.861Z,10.24
2022-10-31T04:13:52.785Z,10.20
2022-10-31T04:19:24.848Z,10.17
2022-10-31T04:36:00.448Z,10.07
2022-10-31T04:41:32.511Z,10.05
2022-10-31T04:47:04.272Z,10.02
2022-10-31T04:52:36.039Z,9.99
2022-10-31T04:58:08.025Z,9.97
2022-10-31T05:03:40.103Z,9.94
2022-10-31T05:09:11.786Z,9.92
2022-10-31T05:14:46.158Z,9.90
2022-10-31T05:20:15.558Z,9.87
2022-10-31T05:25:47.705Z,9.85
2022-10-31T05:31:19.271Z,9.84
2022-10-31T05:36:51.090Z,9.84
2022-10-31T05:42:23.236Z,9.83
2022-10-31T05:47:54.757Z,9.81
2022-10-31T05:53:26.583Z,9.80
2022-10-31T05:59:00.115Z,9.79
2022-10-31T06:04:32.203Z,9.77
2022-10-31T06:10:03.696Z,9.74
2022-10-31T06:15:37.108Z,9.72
2022-10-31T06:21:08.830Z,9.72
2022-10-31T06:26:40.628Z,9.78
2022-10-31T06:32:12.386Z,9.90
2022-10-31T06:37:46.821Z,10.09
2022-10-31T06:43:16.815Z,10.35
2022-10-31T06:48:49.088Z,10.71
2022-10-31T06:54:21.275Z,11.16
2022-10-31T06:59:53.255Z,11.65
2022-10-31T07:05:25.281Z,12.13
2022-10-31T07:10:57.424Z,12.62
2022-10-31T07:16:29.898Z,13.08
2022-10-31T07:22:01.809Z,13.47
2022-10-31T07:27:35.682Z,13.83
2022-10-31T07:35:27.398Z,14.55
2022-10-31T07:40:59.202Z,14.81
2022-10-31T07:46:31.400Z,15.10
2022-10-31T07:52:03.225Z,15.40
2022-10-31T07:57:35.023Z,15.72
2022-10-31T08:03:06.811Z,16.03
2022-10-31T08:08:39.405Z,16.31
2022-10-31T08:14:10.935Z,16.59
2022-10-31T08:19:42.716Z,16.87
2022-10-31T08:25:14.791Z,17.16
2022-10-31T08:30:46.523Z,17.41
2022-10-31T08:36:18.209Z,17.61
2022-10-31T08:41:50.184Z,17.87
2022-10-31T08:47:22.251Z,18.12
2022-10-31T08:53:05.683Z,18.33
2022-10-31T08:58:25.923Z,18.58
2022-10-31T09:03:57.575Z,18.87
2022-10-31T09:11:51.357Z,19.59
2022-10-31T09:17:23.423Z,19.72
2022-10-31T09:22:55.388Z,19.76
2022-10-31T09:28:26.977Z,19.75
2022-10-31T09:33:59.057Z,19.67
2022-10-31T09:39:30.486Z,19.54
2022-10-31T09:45:02.133Z,19.52
2022-10-31T09:50:33.803Z,19.42
2022-10-31T09:56:05.657Z,19.28
2022-10-31T10:01:37.755Z,19.22
2022-10-31T10:07:09.830Z,19.26
2022-10-31T10:18:11.329Z,19.34
2022-10-31T10:23:43.099Z,19.29
2022-10-31T10:29:14.776Z,19.16
2022-10-31T10:34:46.614Z,19.13
2022-10-31T10:40:18.144Z,19.14
2022-10-31T10:45:50.049Z,19.29
2022-10-31T10:51:32.033Z,19.52
2022-10-31T11:02:23.182Z,19.86
2022-10-31T11:07:55.101Z,19.92
2022-10-31T11:18:56.762Z,19.90
2022-10-31T11:24:28.360Z,19.96
2022-10-31T11:30:00.980Z,19.91
2022-10-31T11:35:31.682Z,20.05
2022-10-31T11:41:03.409Z,20.27
2022-10-31T11:46:35.424Z,20.45
2022-10-31T11:52:07.159Z,20.58
2022-10-31T11:57:38.838Z,20.63
2022-10-31T12:03:10.703Z,20.80
2022-10-31T12:08:42.381Z,20.83
2022-10-31T12:14:15.411Z,20.90
2022-10-31T12:19:49.156Z,20.91
2022-10-31T12:25:18.601Z,20.88
2022-10-31T12:30:50.665Z,20.87
2022-10-31T12:36:22.340Z,20.88
2022-10-31T12:41:54.118Z,20.82
2022-10-31T12:47:25.910Z,20.69
2022-10-31T12:52:57.717Z,20.62
2022-10-31T12:58:29.394Z,20.67
2022-10-31T13:04:00.972Z,20.75
2022-10-31T13:09:32.562Z,20.63
2022-10-31T13:15:04.389Z,20.48
2022-10-31T13:20:36.174Z,20.40
2022-10-31T13:26:07.811Z,20.46
2022-10-31T13:31:39.861Z,20.52
2022-10-31T13:42:43.171Z,20.46
2022-10-31T13:48:14.902Z,20.24
2022-10-31T13:53:47.077Z,20.08
2022-10-31T13:59:19.029Z,20.01
2022-10-31T14:04:50.854Z,19.91
2022-10-31T14:10:22.812Z,19.74
2022-10-31T14:21:26.174Z,19.55
2022-10-31T14:26:58.164Z,19.43
2022-10-31T14:32:29.875Z,19.33
2022-10-31T14:38:01.965Z,19.21
2022-10-31T14:43:33.141Z,19.14
2022-10-31T14:49:05.117Z,19.08
2022-10-31T14:54:36.683Z,18.95
2022-10-31T15:00:08.527Z,18.82
2022-10-31T15:05:40.150Z,18.75
2022-10-31T15:11:12.200Z,18.71
2022-10-31T15:16:43.648Z,18.64
2022-10-31T15:22:15.367Z,18.57
2022-10-31T15:27:47.149Z,18.47
2022-10-31T15:33:18.893Z,18.41
2022-10-31T15:38:53.393Z,18.35
2022-10-31T15:44:24.901Z,18.25
2022-10-31T15:49:56.767Z,18.20
2022-10-31T15:55:28.709Z,18.15
2022-10-31T16:01:00.326Z,18.08
2022-10-31T16:06:31.996Z,17.95
2022-10-31T16:12:03.763Z,17.81
2022-10-31T16:17:36.013Z,17.63
2022-10-31T16:34:11.814Z,17.25
2022-10-31T16:41:56.831Z,16.55
2022-10-31T16:47:29.921Z,16.73
2022-10-31T16:53:13.527Z,16.80
2022-10-31T17:04:02.658Z,16.66
2022-10-31T17:09:34.479Z,16.49
2022-10-31T17:15:06.241Z,16.33
2022-10-31T17:20:37.942Z,16.20
2022-10-31T17:26:09.996Z,16.07
2022-10-31T17:31:44.128Z,16.00
2022-10-31T17:37:15.956Z,15.91
2022-10-31T17:42:47.742Z,15.79
2022-10-31T17:48:19.456Z,15.71
2022-10-31T17:53:51.132Z,15.66
2022-10-31T17:59:23.000Z,15.55
2022-10-31T18:04:54.517Z,15.46
2022-10-31T18:15:55.982Z,15.22
2022-10-31T18:21:27.915Z,15.15
2022-10-31T18:27:00.397Z,15.10
2022-10-31T18:32:32.322Z,15.03
2022-10-31T18:38:04.429Z,14.93
2022-10-31T18:43:36.353Z,14.82
2022-10-31T18:49:08.231Z,14.72
2022-10-31T18:54:40.046Z,14.63
2022-10-31T19:00:11.603Z,14.53
2022-10-31T19:05:43.516Z,14.43
2022-10-31T19:11:15.015Z,14.32
2022-10-31T19:16:46.743Z,14.20
2022-10-31T19:22:18.489Z,14.08
2022-10-31T19:27:50.184Z,13.96
2022-10-31T19:33:21.882Z,13.83
2022-10-31T19:38:53.361Z,13.71
2022-10-31T19:44:25.082Z,13.58
2022-10-31T19:49:56.739Z,13.47
2022-10-31T19:55:28.515Z,13.35
2022-10-31T20:01:00.454Z,13.24
2022-10-31T20:06:31.998Z,13.12
2022-10-31T20:12:03.910Z,13.02
2022-10-31T20:17:35.754Z,12.93
2022-10-31T20:23:07.422Z,12.86
2022-10-31T20:28:43.379Z,12.79
2022-10-31T20:34:11.061Z,12.73
2022-10-31T20:39:42.822Z,12.66
2022-10-31T20:45:14.469Z,12.59
2022-10-31T20:50:51.987Z,12.53
2022-10-31T20:56:23.662Z,12.47
2022-10-31T21:07:27.393Z,12.34
2022-10-31T21:13:01.077Z,12.27
2022-10-31T21:18:32.738Z,12.18
2022-10-31T21:24:06.878Z,12.07
2022-10-31T21:29:38.673Z,11.97
2022-10-31T21:35:10.505Z,11.89
2022-10-31T21:46:13.960Z,11.75
2022-10-31T21:57:18.520Z,11.66
2022-10-31T22:02:50.109Z,11.61
2022-10-31T22:08:21.869Z,11.57
2022-10-31T22:13:53.688Z,11.52
2022-10-31T22:19:27.849Z,11.48
2022-10-31T22:24:59.674Z,11.43
2022-10-31T22:30:31.416Z,11.39
2022-10-31T22:36:03.362Z,11.35
2022-10-31T22:41:35.061Z,11.32
2022-10-31T22:52:38.673Z,11.28
2022-10-31T23:03:42.234Z,11.26
2022-10-31T23:14:43.542Z,11.20
2022-10-31T23:20:15.176Z,11.15
2022-10-31T23:25:47.063Z,11.09
2022-10-31T23:36:48.474Z,10.95
2022-10-31T23:42:20.299Z,10.87
2022-10-31T23:47:51.982Z,10.79
2022-10-31T23:53:23.839Z,10.69
2022-10-31T23:58:55.431Z,10.58
